Latest Weather Observations for Biloela

IDQ60801

Issued at 10:31 pm EST Saturday 29 August 2015 (issued every 30 minutes, with the page automatically refreshed every 10 minutes)

About weather observations | Map of weather stations | Latest weather observations for QLD | Other Formats
Station Details ID: 039089 Name: THANGOOL AIRPORT Lat: -24.49 Lon: 150.57 Height: 193.1 m
Data from the previous 72 hours. | See also: Recent months at Biloela
Date/Time
EST
Temp
°C
App
Temp
°C
Dew
Point
Rel
Hum
%
Delta-T
°C
Wind Press
QNH
hPa
Press
MSL
hPa
Rain
since 9 am
mm
Dir
 
Spd
km/h
Gust
km/h
Spd
kts
Gust
kts
29/10:30pm 14.9 15.2 14.4 97 0.3 SE 6 9 3 5 1020.5 - 35.4
29/10:16pm 14.9 15.1 14.3 96 0.3 ESE 6 9 3 5 1020.6 - 34.8
29/10:01pm 14.8 15.4 14.2 96 0.3 SE 4 7 2 4 1020.9 - 34.2
29/10:00pm 14.8 15.4 14.2 96 0.3 SE 4 7 2 4 1020.8 - 34.2
29/09:30pm 14.8 13.7 14.3 97 0.3 ESE 13 17 7 9 1021.0 - 32.4
29/09:22pm 14.7 13.6 14.2 97 0.3 E 13 17 7 9 1020.7 - 32.0
29/09:00pm 14.5 13.7 13.9 96 0.3 ESE 11 15 6 8 1020.7 1020.5 30.0
29/08:30pm 14.6 15.4 13.6 94 0.6 ENE 2 7 1 4 1021.2 - 25.4
29/08:00pm 14.9 14.3 13.6 92 0.7 S 9 15 5 8 1020.7 - 17.8
29/07:56pm 14.9 14.3 13.6 92 0.7 SSE 9 15 5 8 1020.4 - 16.6
29/07:30pm 15.0 13.6 13.5 91 0.8 SE 13 22 7 12 1019.8 - 15.0
29/07:00pm 15.1 13.1 13.8 92 0.7 ESE 17 22 9 12 1019.3 - 14.8
29/06:31pm 15.0 14.0 13.5 91 0.8 ESE 11 20 6 11 1019.3 - 14.6
29/06:30pm 15.0 14.0 13.5 91 0.8 ESE 11 20 6 11 1019.3 - 14.6
29/06:14pm 15.2 14.7 13.9 92 0.7 SSE 9 13 5 7 1019.0 - 14.2
29/06:00pm 15.5 15.1 14.0 91 0.9 S 9 13 5 7 1019.2 1019.0 12.8
29/05:30pm 15.5 14.1 13.3 87 1.2 S 13 22 7 12 1018.6 - 11.2
29/05:00pm 16.6 14.3 13.1 80 2.0 SSW 17 28 9 15 1017.7 - 10.6
29/04:30pm 19.3 19.0 17.3 88 1.2 E 15 17 8 9 1017.2 - 10.6
29/04:00pm 19.7 21.2 18.0 90 1.1 ESE 7 11 4 6 1017.1 - 10.6
29/03:33pm 19.2 20.4 17.3 89 1.2 SSE 7 15 4 8 1017.1 - 10.6
29/03:30pm 19.2 20.0 17.3 89 1.2 SSE 9 15 5 8 1017.1 - 10.6
29/03:08pm 19.2 17.3 15.3 78 2.3 SW 19 26 10 14 1017.7 - 4.0
29/03:00pm 22.6 22.0 14.7 61 4.7 NNW 11 24 6 13 1017.1 1017.0 0.0
29/02:30pm 25.4 24.1 13.6 48 7.0 N 13 19 7 10 1017.1 - 0.0
29/02:00pm 25.8 24.6 14.0 48 7.0 N 13 22 7 12 1017.6 - 0.0
29/01:30pm 25.4 24.7 13.3 47 7.1 NNW 9 19 5 10 1018.3 - 0.0
29/01:00pm 25.2 23.0 13.4 48 7.0 N 17 24 9 13 1018.9 - 0.0
29/12:30pm 25.9 24.2 13.7 47 7.2 N 15 20 8 11 1019.4 - 0.0
29/12:00pm 25.9 24.2 13.7 47 7.2 NNE 15 20 8 11 1019.9 1019.7 0.0
29/11:30am 24.6 23.4 14.1 52 6.2 N 13 20 7 11 1020.6 - 0.0
29/11:00am 24.1 23.4 14.2 54 5.9 N 11 20 6 11 1021.2 - 0.0
29/10:30am 23.0 22.9 13.2 54 5.7 NNW 6 13 3 7 1021.8 - 0.0
29/10:00am 23.1 23.1 13.6 55 5.6 NNW 6 9 3 5 1022.2 - 0.0
29/09:30am 20.7 19.5 11.6 56 5.1 S 9 11 5 6 1022.2 - 0.0
29/09:00am 19.8 18.2 10.2 54 5.2 ESE 9 13 5 7 1022.1 1022.0 0.0
29/08:30am 18.2 16.0 9.3 56 4.7 ESE 11 17 6 9 1022.3 - 0.0
29/08:00am 16.8 15.1 9.7 63 3.8 E 9 11 5 6 1022.3 - 0.0
29/07:30am 15.0 13.1 8.9 67 3.1 E 9 13 5 7 1022.1 - 0.0
29/07:00am 14.2 12.3 9.2 72 2.6 E 9 13 5 7 1021.6 - 0.0
29/06:30am 13.1 11.9 8.2 72 2.5 ESE 4 9 2 5 1021.6 - 0.0
29/06:00am 13.2 11.4 8.1 71 2.5 ESE 7 11 4 6 1021.5 1021.4 0.0
29/05:30am 14.3 12.6 8.5 68 2.9 SE 7 11 4 6 1021.1 - 0.0
29/05:00am 14.4 12.8 8.8 69 2.9 SE 7 11 4 6 1020.7 - 0.0
29/04:30am 15.0 14.5 9.4 69 2.9 SSE 2 7 1 4 1020.8 - 0.0
29/04:00am 15.0 13.8 9.4 69 2.9 ESE 6 9 3 5 1020.4 - 0.0
29/03:30am 15.0 14.4 8.9 67 3.1 SSE 2 6 1 3 1020.6 - 0.0
29/03:00am 15.4 13.6 9.3 67 3.2 ESE 9 13 5 7 1020.3 1020.1 0.0
29/02:30am 15.4 14.1 9.3 67 3.2 ESE 6 7 3 4 1020.8 - 0.0
29/02:00am 16.6 15.5 10.0 65 3.5 ESE 6 9 3 5 1020.8 - 0.0
29/01:30am 16.5 15.5 10.4 67 3.3 SSE 6 9 3 5 1021.1 - 0.0
29/01:00am 17.6 16.7 10.7 64 3.7 SE 6 9 3 5 1021.4 - 0.0
29/12:30am 18.3 17.4 10.7 61 4.1 S 6 7 3 4 1021.6 - 0.0
29/12:00am 19.1 18.2 11.4 61 4.2 ESE 7 11 4 6 1021.2 1021.1 0.0
 
Date/Time
EST
Temp
°C
App
Temp
°C
Dew
Point
Rel
Hum
%
Delta-T
°C
Wind Press
QNH
hPa
Press
MSL
hPa
Rain
since 9 am
mm
Dir
 
Spd
km/h
Gust
km/h
Spd
kts
Gust
kts
28/11:30pm 19.5 18.9 12.3 63 4.1 ESE 7 11 4 6 1021.1 - 0.0
28/11:00pm 20.1 19.4 13.1 64 4.0 SE 9 15 5 8 1021.3 - 0.0
28/10:30pm 19.2 19.4 14.2 73 2.9 S 6 9 3 5 1021.6 - 0.0
28/10:00pm 19.4 19.5 14.4 73 2.9 SSE 7 9 4 5 1021.3 - 0.0
28/09:30pm 19.2 19.3 13.8 71 3.1 ENE 6 9 3 5 1021.0 - 0.0
28/09:00pm 18.9 19.0 14.0 73 2.8 SE 6 7 3 4 1020.9 1020.7 0.0
28/08:30pm 18.6 19.3 14.5 77 2.4 ESE 4 7 2 4 1020.7 - 0.0
28/08:00pm 18.6 18.7 13.9 74 2.7 E 6 9 3 5 1020.4 - 0.0
28/07:30pm 18.1 19.2 13.6 75 2.6 CALM 0 0 0 0 1019.9 - 0.0
28/07:00pm 19.5 20.7 13.9 70 3.2 CALM 0 0 0 0 1019.7 - 0.0
28/06:30pm 20.4 21.5 13.6 65 3.9 CALM 0 0 0 0 1019.4 - 0.0
28/06:00pm 22.1 23.0 14.0 60 4.7 SW 2 7 1 4 1019.1 1018.9 0.0
28/05:30pm 22.6 22.1 13.7 57 5.2 SW 9 13 5 7 1018.8 - 0.0
28/05:00pm 24.0 23.4 13.5 52 6.2 SW 9 15 5 8 1018.4 - 0.0
28/04:30pm 25.1 23.6 14.3 51 6.5 SW 15 22 8 12 1018.0 - 0.0
28/04:00pm 26.1 25.8 13.2 44 7.6 SSW 7 11 4 6 1017.5 - 0.0
28/03:30pm 25.8 25.1 13.3 46 7.4 SSE 9 15 5 8 1017.5 - 0.0
28/03:00pm 26.7 26.2 14.8 48 7.2 SW 11 15 6 8 1018.0 1017.8 0.0
28/02:30pm 26.0 25.0 14.5 49 6.9 SW 13 19 7 10 1018.4 - 0.0
28/02:00pm 25.1 25.0 13.3 48 6.9 NW 6 9 3 5 1018.7 - 0.0
28/01:30pm 24.5 24.1 14.0 52 6.2 S 9 13 5 7 1019.2 - 0.0
28/01:00pm 25.3 24.6 14.4 50 6.5 W 11 15 6 8 1019.7 - 0.0
28/12:30pm 24.0 24.1 14.4 55 5.7 SSW 7 13 4 7 1020.3 - 0.0
28/12:00pm 23.3 23.0 14.3 57 5.3 SSW 9 15 5 8 1020.8 1020.6 0.0
28/11:30am 23.2 23.4 14.2 57 5.3 SSE 6 17 3 9 1021.3 - 0.0
28/11:00am 23.2 23.3 14.5 58 5.2 SSE 7 17 4 9 1021.8 - 0.0
28/10:30am 22.7 22.5 14.8 61 4.7 SSE 9 17 5 9 1022.2 - 0.0
28/10:00am 21.8 21.7 14.9 65 4.1 S 9 17 5 9 1022.4 - 0.0
28/09:30am 21.4 20.9 15.0 67 3.8 SE 11 17 6 9 1022.7 - 0.0
28/09:00am 20.2 20.0 14.8 71 3.2 SE 9 15 5 8 1023.0 1022.9 0.2
28/08:30am 19.5 19.6 15.6 78 2.3 S 9 15 5 8 1022.8 - 0.2
28/08:00am 18.7 18.7 15.2 80 2.1 S 9 15 5 8 1022.5 - 0.2
28/07:30am 18.2 18.7 15.1 82 1.8 S 6 11 3 6 1022.2 - 0.2
28/07:00am 17.7 19.3 15.0 84 1.6 CALM 0 6 0 3 1021.9 - 0.2
28/06:30am 17.5 18.7 15.0 85 1.5 SSE 2 6 1 3 1021.6 - 0.2
28/06:00am 17.2 19.0 15.4 89 1.1 CALM 0 0 0 0 1021.1 1021.0 0.2
28/05:30am 16.9 18.6 15.1 89 1.1 CALM 0 0 0 0 1020.6 - 0.2
28/05:00am 17.2 17.3 15.5 90 1.0 SW 9 11 5 6 1020.6 - 0.2
28/04:30am 16.6 17.0 14.8 89 1.0 WSW 6 7 3 4 1020.3 - 0.2
28/04:00am 17.2 18.0 14.7 85 1.5 NNW 4 6 2 3 1020.0 - 0.2
28/03:30am 17.9 17.4 15.0 83 1.7 ENE 11 13 6 7 1019.6 - 0.2
28/03:00am 18.0 18.4 15.4 85 1.5 ESE 7 9 4 5 1020.2 1020.0 0.2
28/02:30am 17.5 19.3 15.5 88 1.2 CALM 0 0 0 0 1020.6 - 0.2
28/02:00am 17.2 18.8 15.0 87 1.3 CALM 0 0 0 0 1020.6 - 0.2
28/01:30am 17.0 18.6 14.8 87 1.3 CALM 0 0 0 0 1020.9 - 0.2
28/01:00am 17.4 18.8 14.5 83 1.7 CALM 0 0 0 0 1021.1 - 0.2
28/12:30am 17.6 18.1 14.9 84 1.6 ENE 6 7 3 4 1021.1 - 0.2
28/12:00am 18.0 18.8 14.7 81 1.9 ENE 4 7 2 4 1021.4 1021.3 0.2
 
Date/Time
EST
Temp
°C
App
Temp
°C
Dew
Point
Rel
Hum
%
Delta-T
°C
Wind Press
QNH
hPa
Press
MSL
hPa
Rain
since 9 am
mm
Dir
 
Spd
km/h
Gust
km/h
Spd
kts
Gust
kts
27/11:30pm 18.2 19.4 14.9 81 1.9 ESE 2 7 1 4 1021.3 - 0.2
27/11:00pm 18.6 18.5 14.9 79 2.2 WSW 9 11 5 6 1021.5 - 0.2
27/10:30pm 18.7 19.9 15.0 79 2.2 S 2 7 1 4 1021.2 - 0.2
27/10:00pm 18.9 20.1 14.8 77 2.4 SSW 2 6 1 3 1021.1 - 0.2
27/09:30pm 18.7 20.3 15.0 79 2.2 CALM 0 0 0 0 1021.3 - 0.2
27/09:00pm 19.3 19.6 14.6 74 2.7 W 6 9 3 5 1021.3 1021.2 0.2
27/08:30pm 19.7 21.0 14.1 70 3.3 CALM 0 6 0 3 1021.1 - 0.2
27/08:00pm 20.7 19.7 14.6 68 3.6 ENE 13 17 7 9 1020.7 - 0.2
27/07:30pm 20.0 20.1 14.4 70 3.3 ENE 7 9 4 5 1020.8 - 0.2
27/07:00pm 20.2 20.2 14.3 69 3.5 ENE 7 7 4 4 1020.2 - 0.2
27/06:30pm 20.4 21.6 13.8 66 3.8 CALM 0 0 0 0 1019.9 - 0.2
27/06:00pm 21.4 22.5 13.6 61 4.5 CALM 0 0 0 0 1019.6 1019.4 0.2
27/05:30pm 22.6 22.1 13.7 57 5.2 SSW 9 13 5 7 1019.2 - 0.2
27/05:00pm 23.2 22.7 13.7 55 5.6 SW 9 13 5 7 1019.1 - 0.2
27/04:30pm 24.2 22.9 13.7 52 6.2 SW 13 20 7 11 1019.0 - 0.2
27/04:00pm 24.8 23.5 13.7 50 6.6 W 13 19 7 10 1018.9 - 0.2
27/03:30pm 25.6 24.1 14.1 49 6.9 WSW 15 24 8 13 1018.8 - 0.2
27/03:00pm 25.5 23.7 13.4 47 7.1 W 15 20 8 11 1019.1 1018.9 0.2
27/02:30pm 24.9 23.6 13.8 50 6.6 W 13 24 7 13 1019.3 - 0.2
27/02:00pm 25.4 24.3 14.2 50 6.7 WSW 13 24 7 13 1019.1 - 0.2
27/01:30pm 24.7 23.2 14.2 52 6.3 WSW 15 24 8 13 1019.4 - 0.2
27/01:00pm 26.5 25.9 14.6 48 7.2 W 11 20 6 11 1019.6 - 0.2
27/12:30pm 25.8 25.3 14.9 51 6.6 NW 11 24 6 13 1020.4 - 0.2
27/12:00pm 24.1 22.8 14.8 56 5.6 W 15 24 8 13 1021.1 1021.0 0.2
27/11:30am 24.6 23.5 15.2 55 5.7 WNW 15 24 8 13 1021.4 - 0.2
27/11:00am 24.2 21.8 12.5 48 6.8 WNW 17 24 9 13 1021.6 - 0.2
27/10:30am 23.9 22.9 14.6 56 5.6 N 13 20 7 11 1021.9 - 0.2
27/10:00am 22.3 21.6 15.4 65 4.2 N 13 19 7 10 1022.4 - 0.2
27/09:57am 22.4 21.5 14.8 62 4.5 NNW 13 19 7 10 1022.5 - 0.2
27/09:30am 21.7 22.5 17.3 76 2.7 NNW 9 13 5 7 1022.7 - 0.2
27/09:10am 20.4 21.2 16.4 78 2.4 W 7 11 4 6 1022.8 - 0.2
27/09:00am 20.7 21.6 16.7 78 2.4 W 7 11 4 6 1022.8 1022.7 8.2
27/08:30am 19.4 20.3 16.2 82 1.9 SSW 6 7 3 4 1022.5 - 8.2
27/08:00am 18.0 18.7 15.6 86 1.4 WSW 6 9 3 5 1022.3 - 8.2
27/07:30am 16.9 18.7 15.6 92 0.8 CALM 0 0 0 0 1021.7 - 8.2
27/07:00am 16.6 17.6 15.3 92 0.8 N 4 7 2 4 1021.5 - 8.2
27/06:30am 16.1 16.5 14.8 92 0.8 SSE 6 6 3 3 1021.1 - 8.2
27/06:00am 16.3 16.7 15.2 93 0.6 S 7 9 4 5 1020.7 1020.5 8.2
27/05:30am 16.7 17.4 15.7 94 0.6 SSE 6 7 3 4 1020.6 - 8.2
27/05:00am 16.8 17.5 16.0 95 0.5 ESE 7 11 4 6 1020.1 - 8.2
27/04:30am 16.6 16.9 16.0 96 0.4 E 9 11 5 6 1020.1 - 8.2
27/04:00am 16.6 16.9 16.0 96 0.4 E 9 11 5 6 1020.7 - 8.2
27/03:30am 16.4 16.5 15.6 95 0.5 E 9 11 5 6 1020.9 - 8.2
27/03:10am 16.4 17.0 15.4 94 0.6 SSE 6 11 3 6 1021.3 - 8.2
27/03:00am 16.5 17.0 15.5 94 0.6 S 7 13 4 7 1021.5 1021.4 8.2
27/02:56am 16.4 16.5 15.4 94 0.6 SSW 9 15 5 8 1021.4 - 8.0
27/02:30am 17.8 16.6 16.1 90 1.0 WNW 17 28 9 15 1021.9 - 1.2
27/02:27am 18.5 18.3 16.8 90 1.0 WNW 13 20 7 11 1021.9 - 0.4
27/02:19am 19.2 19.6 16.4 84 1.7 NW 9 13 5 7 1021.7 - 0.0
27/02:00am 19.1 19.8 16.1 83 1.8 NW 7 9 4 5 1021.6 - 0.0
27/01:30am 19.1 19.8 16.1 83 1.8 NW 7 9 4 5 1021.8 - 0.0
27/01:00am 18.9 19.6 16.1 84 1.7 NW 7 11 4 6 1021.9 - 0.0
27/12:30am 18.4 19.1 15.6 84 1.7 NW 6 7 3 4 1022.0 - 0.0
27/12:00am 18.6 18.8 15.8 84 1.7 NNW 9 11 5 6 1021.9 1021.8 0.0
 
Date/Time
EST
Temp
°C
App
Temp
°C
Dew
Point
Rel
Hum
%
Delta-T
°C
Wind Press
QNH
hPa
Press
MSL
hPa
Rain
since 9 am
mm
Dir
 
Spd
km/h
Gust
km/h
Spd
kts
Gust
kts
26/11:30pm 18.8 18.9 15.5 81 2.0 NNW 9 11 5 6 1021.9 - 0.0
26/11:00pm 19.9 20.5 15.7 77 2.5 N 7 11 4 6 1021.7 - 0.0

Other Formats:

Comma delimited format used in spreadsheet applications
http://www.bom.gov.au/fwo/IDQ60801/IDQ60801.94376.axf

JavaScript Object Notation format (JSON) in row-major order
http://www.bom.gov.au/fwo/IDQ60801/IDQ60801.94376.json